Time;durP1;ratioP1;P1;durP2;ratioP2;P2;SDS_P1;SDS_P2;PMS_P1;PMS_P2;Temp;Humidity;BMP_temperature;BMP_pressure;BME280_temperature;BME280_humidity;BME280_pressure;Samples;Min_cycle;Max_cycle;Signal;HPM_P1;HPM_P2
2021/01/11 00:00:38;;;;;;;;;;;;;;;;;;2070994;28;8042;-64
2021/01/11 00:01:42;;;;;;;;;;;;;;;;;;2070533;28;7088;-63
2021/01/11 00:02:44;;;;;;;;;;;;;;;;;;2071246;28;7089;-64
2021/01/11 00:03:46;;;;;;;;;;;;;;;;;;2071392;28;7048;-66
2021/01/11 00:04:48;;;;;;;;;;;;;;;;;;2071262;28;7156;-64
2021/01/11 00:05:50;;;;;;;;;;;;;;;;;;2070655;28;7010;-64
2021/01/11 00:06:52;;;;;;;;;;;;;;;;;;2071183;28;7088;-64
2021/01/11 00:07:54;;;;;;;;;;;;;;;;;;2070614;28;7153;-64
2021/01/11 00:08:56;;;;;;;;;;;;;;;;;;2070646;28;7088;-65
2021/01/11 00:09:58;;;;;;;;;;;;;;;;;;2070646;28;7009;-65
2021/01/11 00:11:00;;;;;;;;;;;;;;;;;;2071484;28;7009;-65
2021/01/11 00:12:02;;;;;;;;;;;;;;;;;;2071174;28;7021;-66
2021/01/11 00:13:04;;;;;;;;;;;;;;;;;;2069902;28;7017;-64
2021/01/11 00:14:06;;;;;;;;;;;;;;;;;;2069283;28;7150;-64
2021/01/11 00:15:10;;;;;;;;;;;;;;;;;;2070684;28;7009;-65
2021/01/11 00:16:12;;;;;;;;;;;;;;;;;;2078936;28;7186;-65
2021/01/11 00:17:14;;;;;;;;;;;;;;;;;;2079317;28;7042;-66
2021/01/11 00:18:16;;;;;;;;;;;;;;;;;;2079464;28;7017;-65
2021/01/11 00:19:18;;;;;;;;;;;;;;;;;;2078719;28;7014;-63
2021/01/11 00:20:20;;;;;;;;;;;;;;;;;;2078825;28;7092;-65
2021/01/11 00:21:23;;;;;;;;;;;;;;;;;;2074918;28;7005;-63
2021/01/11 00:22:25;;;;;;;;;;;;;;;;;;2070411;28;7013;-65
2021/01/11 00:23:26;;;;;;;;;;;;;;;;;;2071069;28;7092;-62
2021/01/11 00:24:28;;;;;;;;;;;;;;;;;;2070870;28;7009;-65
2021/01/11 00:25:30;;;;;;;;;;;;;;;;;;2071173;28;7092;-65
2021/01/11 00:26:32;;;;;;;;;;;;;;;;;;2070520;28;8004;-65
2021/01/11 00:27:34;;;;;;;;;;;;;;;;;;2070695;28;7010;-64
2021/01/11 00:28:41;;;;;;;;;;;;;;;;;;2070562;28;7013;-63
2021/01/11 00:29:43;;;;;;;;;;;;;;;;;;2070941;28;7049;-65
2021/01/11 00:30:45;;;;;;;;;;;;;;;;;;2078001;28;7029;-65
2021/01/11 00:31:47;;;;;;;;;;;;;;;;;;2078169;28;7025;-65
2021/01/11 00:32:49;;;;;;;;;;;;;;;;;;2071048;28;7042;-65
2021/01/11 00:33:52;;;;;;;;;;;;;;;;;;2070905;28;7013;-66
2021/01/11 00:34:54;;;;;;;;;;;;;;;;;;2070458;28;7030;-64
2021/01/11 00:35:56;;;;;;;;;;;;;;;;;;2071191;28;8051;-64
2021/01/11 00:36:58;;;;;;;;;;;;;;;;;;2071560;28;7040;-66
2021/01/11 00:38:00;;;;;;;;;;;;;;;;;;2071653;28;7010;-64
2021/01/11 00:39:02;;;;;;;;;;;;;;;;;;2071060;28;7005;-64
2021/01/11 00:40:06;;;;;;;;;;;;;;;;;;2070606;28;7088;-64
2021/01/11 00:41:14;;;;;;;;;;;;;;;;;;2070682;28;7137;-64
2021/01/11 00:42:16;;;;;;;;;;;;;;;;;;2070516;28;7092;-64
2021/01/11 00:43:18;;;;;;;;;;;;;;;;;;2070377;28;7092;-64
2021/01/11 00:44:20;;;;;;;;;;;;;;;;;;2070507;28;7010;-65
2021/01/11 00:45:22;;;;;;;;;;;;;;;;;;2069615;28;8011;-64
2021/01/11 00:46:28;;;;;;;;;;;;;;;;;;2070966;28;7045;-65
2021/01/11 00:47:30;;;;;;;;;;;;;;;;;;2070024;28;7078;-65
2021/01/11 00:48:32;;;;;;;;;;;;;;;;;;2070326;28;7220;-64
2021/01/11 00:49:34;;;;;;;;;;;;;;;;;;2071373;28;7001;-66
2021/01/11 00:50:38;;;;;;;;;;;;;;;;;;2071491;28;7100;-64
2021/01/11 00:51:40;;;;;;;;;;;;;;;;;;2070254;28;7973;-64
2021/01/11 00:52:42;;;;;;;;;;;;;;;;;;2070682;28;7010;-64
2021/01/11 00:53:44;;;;;;;;;;;;;;;;;;2070664;28;7006;-65
2021/01/11 00:54:46;;;;;;;;;;;;;;;;;;2071101;28;7129;-64
2021/01/11 00:55:48;;;;;;;;;;;;;;;;;;2070666;28;7009;-64
2021/01/11 00:56:50;;;;;;;;;;;;;;;;;;2069869;28;7123;-64
2021/01/11 00:57:52;;;;;;;;;;;;;;;;;;2070559;28;7157;-64
2021/01/11 00:58:54;;;;;;;;;;;;;;;;;;2070391;28;7269;-65
2021/01/11 00:59:56;;;;;;;;;;;;;;;;;;2070488;28;7009;-65
2021/01/11 01:00:58;;;;;;;;;;;;;;;;;;2070773;28;7481;-66
2021/01/11 01:02:03;;;;;;;;;;;;;;;;;;2070793;28;7352;-63
2021/01/11 01:03:05;;;;;;;;;;;;;;;;;;2069093;28;7325;-64
2021/01/11 01:04:07;;;;;;;;;;;;;;;;;;2070520;28;7113;-64
2021/01/11 01:05:10;;;;;;;;;;;;;;;;;;2071067;28;7296;-63
2021/01/11 01:06:15;;;;;;;;;;;;;;;;;;2069671;28;7145;-65
2021/01/11 01:07:17;;;;;;;;;;;;;;;;;;2070758;28;7109;-66
2021/01/11 01:08:19;;;;;;;;;;;;;;;;;;2070413;28;9336;-65
2021/01/11 01:09:21;;;;;;;;;;;;;;;;;;2070328;28;7010;-64
2021/01/11 01:10:22;;;;;;;;;;;;;;;;;;2070471;28;7045;-66
2021/01/11 01:11:27;;;;;;;;;;;;;;;;;;2070329;28;7093;-65
2021/01/11 01:12:29;;;;;;;;;;;;;;;;;;2070892;28;7092;-65
2021/01/11 01:13:30;;;;;;;;;;;;;;;;;;2078603;28;7088;-63
2021/01/11 01:14:33;;;;;;;;;;;;;;;;;;2078140;28;7105;-65
2021/01/11 01:15:35;;;;;;;;;;;;;;;;;;2078781;28;7050;-64
2021/01/11 01:16:38;;;;;;;;;;;;;;;;;;2078696;28;7304;-64
2021/01/11 01:17:40;;;;;;;;;;;;;;;;;;2078543;28;7006;-65
2021/01/11 01:18:42;;;;;;;;;;;;;;;;;;2078412;28;7293;-65
2021/01/11 01:19:44;;;;;;;;;;;;;;;;;;2079450;28;7013;-64
2021/01/11 01:20:46;;;;;;;;;;;;;;;;;;2078730;28;7109;-65
2021/01/11 01:21:48;;;;;;;;;;;;;;;;;;2078438;28;7009;-64
2021/01/11 01:22:50;;;;;;;;;;;;;;;;;;2069158;28;7074;-64
2021/01/11 01:23:53;;;;;;;;;;;;;;;;;;2070620;28;7121;-66
2021/01/11 01:24:55;;;;;;;;;;;;;;;;;;2069859;28;7105;-65
2021/01/11 01:25:57;;;;;;;;;;;;;;;;;;2071097;28;7054;-65
2021/01/11 01:26:59;;;;;;;;;;;;;;;;;;2069194;28;7144;-66
2021/01/11 01:28:00;;;;;;;;;;;;;;;;;;2070494;28;8240;-64
2021/01/11 01:29:02;;;;;;;;;;;;;;;;;;2069949;28;7344;-63
2021/01/11 01:30:05;;;;;;;;;;;;;;;;;;2070268;28;7110;-64
2021/01/11 01:31:07;;;;;;;;;;;;;;;;;;2070414;28;7041;-64
2021/01/11 01:32:09;;;;;;;;;;;;;;;;;;2070487;28;7992;-63
2021/01/11 01:33:11;;;;;;;;;;;;;;;;;;2070329;28;7100;-66
2021/01/11 01:34:14;;;;;;;;;;;;;;;;;;2069949;28;8025;-66
2021/01/11 01:35:16;;;;;;;;;;;;;;;;;;2070543;28;7133;-66
2021/01/11 01:36:19;;;;;;;;;;;;;;;;;;2070580;28;8120;-66
2021/01/11 01:37:21;;;;;;;;;;;;;;;;;;2070874;28;7034;-63
2021/01/11 01:38:23;;;;;;;;;;;;;;;;;;2070694;28;7627;-64
2021/01/11 01:39:24;;;;;;;;;;;;;;;;;;2069903;28;7009;-65
2021/01/11 01:40:26;;;;;;;;;;;;;;;;;;2070766;28;7005;-66
2021/01/11 01:41:28;;;;;;;;;;;;;;;;;;2069337;28;7046;-64
2021/01/11 01:42:30;;;;;;;;;;;;;;;;;;2069097;28;7100;-65
2021/01/11 01:43:33;;;;;;;;;;;;;;;;;;2070634;28;7092;-62
2021/01/11 01:44:35;;;;;;;;;;;;;;;;;;2070557;28;7141;-65
2021/01/11 01:45:37;;;;;;;;;;;;;;;;;;2070347;28;7130;-63
2021/01/11 01:46:40;;;;;;;;;;;;;;;;;;2070507;28;7010;-65
2021/01/11 01:47:42;;;;;;;;;;;;;;;;;;2074398;28;7128;-65
2021/01/11 01:48:44;;;;;;;;;;;;;;;;;;2078524;28;7101;-63
2021/01/11 01:49:46;;;;;;;;;;;;;;;;;;2078285;28;7009;-65
2021/01/11 01:50:48;;;;;;;;;;;;;;;;;;2078659;28;7088;-65
2021/01/11 01:51:50;;;;;;;;;;;;;;;;;;2078989;28;8133;-64
2021/01/11 01:52:53;;;;;;;;;;;;;;;;;;2078855;28;7009;-63
2021/01/11 01:53:55;;;;;;;;;;;;;;;;;;2078071;28;7005;-66
2021/01/11 01:54:58;;;;;;;;;;;;;;;;;;2078480;28;7006;-66
2021/01/11 01:56:01;;;;;;;;;;;;;;;;;;2085439;28;8080;-65
2021/01/11 01:57:03;;;;;;;;;;;;;;;;;;2086748;28;7422;-64
2021/01/11 01:58:09;;;;;;;;;;;;;;;;;;2079892;28;7104;-64
2021/01/11 01:59:11;;;;;;;;;;;;;;;;;;2079805;28;7057;-65
2021/01/11 02:00:13;;;;;;;;;;;;;;;;;;2079941;28;7356;-65
2021/01/11 02:01:15;;;;;;;;;;;;;;;;;;2080052;28;7109;-65
2021/01/11 02:02:18;;;;;;;;;;;;;;;;;;2079570;28;7009;-66
2021/01/11 02:03:20;;;;;;;;;;;;;;;;;;2080425;28;7009;-63
2021/01/11 02:04:22;;;;;;;;;;;;;;;;;;2079849;28;7050;-65
2021/01/11 02:05:24;;;;;;;;;;;;;;;;;;2080349;28;8123;-66
2021/01/11 02:06:28;;;;;;;;;;;;;;;;;;2080106;28;8077;-66
2021/01/11 02:07:34;;;;;;;;;;;;;;;;;;2080724;28;7117;-66
2021/01/11 02:09:00;;;;;;;;;;;;;;;;;;2080614;28;7009;-65
2021/01/11 02:10:02;;;;;;;;;;;;;;;;;;2070854;28;7105;-66
2021/01/11 02:11:10;;;;;;;;;;;;;;;;;;2070084;28;7105;-64
2021/01/11 02:12:17;;;;;;;;;;;;;;;;;;2071799;28;7025;-65
2021/01/11 02:13:39;;;;;;;;;;;;;;;;;;2072135;28;7718;-66
2021/01/11 02:15:13;;;;;;;;;;;;;;;;;;2079064;28;7073;-64
2021/01/11 02:16:15;;;;;;;;;;;;;;;;;;2062734;28;7088;-64
2021/01/11 02:17:21;;;;;;;;;;;;;;;;;;2069265;28;7037;-66
2021/01/11 02:18:30;;;;;;;;;;;;;;;;;;2071863;28;7014;-66
2021/01/11 02:19:45;;;;;;;;;;;;;;;;;;2071698;28;7088;-65
2021/01/11 02:20:50;;;;;;;;;;;;;;;;;;2072143;28;7244;-64
2021/01/11 02:22:03;;;;;;;;;;;;;;;;;;2079654;28;7488;-63
2021/01/11 02:23:23;;;;;;;;;;;;;;;;;;2080473;28;7120;-65
2021/01/11 02:24:31;;;;;;;;;;;;;;;;;;2079698;28;7021;-65
2021/01/11 02:25:40;;;;;;;;;;;;;;;;;;2079539;28;7535;-66
2021/01/11 02:26:59;;;;;;;;;;;;;;;;;;2079804;28;7044;-65
2021/01/11 02:28:09;;;;;;;;;;;;;;;;;;2071228;28;8041;-66
2021/01/11 02:29:37;;;;;;;;;;;;;;;;;;2071597;28;7723;-66
2021/01/11 02:30:40;;;;;;;;;;;;;;;;;;2077287;28;7058;-66
2021/01/11 02:31:44;;;;;;;;;;;;;;;;;;2071700;28;7029;-66
2021/01/11 02:32:52;;;;;;;;;;;;;;;;;;2071847;28;7025;-65
2021/01/11 02:33:57;;;;;;;;;;;;;;;;;;2076719;28;7092;-66
2021/01/11 02:35:02;;;;;;;;;;;;;;;;;;2080345;28;8093;-65
2021/01/11 02:36:08;;;;;;;;;;;;;;;;;;2079850;28;7009;-63
2021/01/11 02:37:11;;;;;;;;;;;;;;;;;;2072024;28;7054;-63
2021/01/11 02:38:15;;;;;;;;;;;;;;;;;;2071539;28;7013;-65
2021/01/11 02:39:17;;;;;;;;;;;;;;;;;;2072772;28;7065;-64
2021/01/11 02:40:19;;;;;;;;;;;;;;;;;;2071297;28;7013;-65
2021/01/11 02:41:21;;;;;;;;;;;;;;;;;;2071932;28;7029;-65
2021/01/11 02:42:23;;;;;;;;;;;;;;;;;;2071412;28;7033;-66
2021/01/11 02:43:25;;;;;;;;;;;;;;;;;;2072116;28;8049;-64
2021/01/11 02:44:27;;;;;;;;;;;;;;;;;;2070789;28;7010;-64
2021/01/11 02:45:29;;;;;;;;;;;;;;;;;;2071609;28;8043;-65
2021/01/11 02:46:31;;;;;;;;;;;;;;;;;;2072299;28;7368;-64
2021/01/11 02:47:49;;;;;;;;;;;;;;;;;;2079977;28;7308;-65
2021/01/11 02:48:59;;;;;;;;;;;;;;;;;;2080389;28;7009;-64
2021/01/11 02:50:01;;;;;;;;;;;;;;;;;;2071172;28;7013;-66
2021/01/11 02:51:13;;;;;;;;;;;;;;;;;;2072476;28;7065;-66
2021/01/11 02:52:19;;;;;;;;;;;;;;;;;;2071949;28;7445;-67
2021/01/11 02:53:21;;;;;;;;;;;;;;;;;;2071018;28;7018;-67
2021/01/11 02:54:27;;;;;;;;;;;;;;;;;;2072535;28;7092;-67
2021/01/11 02:55:43;;;;;;;;;;;;;;;;;;2072629;28;7308;-64
2021/01/11 02:56:45;;;;;;;;;;;;;;;;;;2071525;28;7009;-64
2021/01/11 02:58:07;;;;;;;;;;;;;;;;;;2072099;28;7041;-64
2021/01/11 02:59:09;;;;;;;;;;;;;;;;;;2072041;28;7132;-65
2021/01/11 03:00:12;;;;;;;;;;;;;;;;;;2079977;28;7038;-65
2021/01/11 03:01:17;;;;;;;;;;;;;;;;;;2079774;28;7104;-66
2021/01/11 03:02:23;;;;;;;;;;;;;;;;;;2079489;28;7087;-64
2021/01/11 03:03:27;;;;;;;;;;;;;;;;;;2079893;28;7137;-66
2021/01/11 03:04:30;;;;;;;;;;;;;;;;;;2079993;28;7053;-65
2021/01/11 03:05:32;;;;;;;;;;;;;;;;;;2079656;28;7158;-64
2021/01/11 03:06:34;;;;;;;;;;;;;;;;;;2079698;28;7033;-64
2021/01/11 03:07:36;;;;;;;;;;;;;;;;;;2079765;28;7101;-64
2021/01/11 03:08:38;;;;;;;;;;;;;;;;;;2078571;28;7215;-66
2021/01/11 03:09:44;;;;;;;;;;;;;;;;;;2079525;28;7217;-66
2021/01/11 03:10:46;;;;;;;;;;;;;;;;;;2086484;28;7013;-64
2021/01/11 03:11:48;;;;;;;;;;;;;;;;;;2078347;28;8361;-66
2021/01/11 03:12:50;;;;;;;;;;;;;;;;;;2070801;28;7204;-64
2021/01/11 03:13:52;;;;;;;;;;;;;;;;;;2071563;28;7538;-66
2021/01/11 03:14:54;;;;;;;;;;;;;;;;;;2078827;28;7117;-65
2021/01/11 03:15:56;;;;;;;;;;;;;;;;;;2078714;28;7331;-66
2021/01/11 03:16:58;;;;;;;;;;;;;;;;;;2071372;28;7092;-66
2021/01/11 03:18:00;;;;;;;;;;;;;;;;;;2071743;28;7029;-64
2021/01/11 03:19:02;;;;;;;;;;;;;;;;;;2070938;28;7368;-64
2021/01/11 03:20:04;;;;;;;;;;;;;;;;;;2072263;28;7021;-64
2021/01/11 03:21:06;;;;;;;;;;;;;;;;;;2072181;28;7109;-66
2021/01/11 03:22:08;;;;;;;;;;;;;;;;;;2079018;28;7445;-65
2021/01/11 03:23:10;;;;;;;;;;;;;;;;;;2079609;28;7657;-64
2021/01/11 03:24:18;;;;;;;;;;;;;;;;;;2079400;28;8022;-64
2021/01/11 03:25:20;;;;;;;;;;;;;;;;;;2079724;28;7013;-64
2021/01/11 03:26:25;;;;;;;;;;;;;;;;;;2079597;28;7013;-65
2021/01/11 03:27:27;;;;;;;;;;;;;;;;;;2079453;28;7161;-66
2021/01/11 03:28:29;;;;;;;;;;;;;;;;;;2079564;28;7001;-65
2021/01/11 03:29:31;;;;;;;;;;;;;;;;;;2070469;28;7113;-65
2021/01/11 03:30:34;;;;;;;;;;;;;;;;;;2070272;28;7046;-65
2021/01/11 03:31:36;;;;;;;;;;;;;;;;;;2070451;28;7046;-65
2021/01/11 03:32:38;;;;;;;;;;;;;;;;;;2071689;28;7121;-65
2021/01/11 03:33:40;;;;;;;;;;;;;;;;;;2070875;28;8103;-66
2021/01/11 03:34:42;;;;;;;;;;;;;;;;;;2071884;28;7061;-66
2021/01/11 03:35:44;;;;;;;;;;;;;;;;;;2071692;28;7113;-66
2021/01/11 03:36:47;;;;;;;;;;;;;;;;;;2071959;28;7360;-63
2021/01/11 03:37:48;;;;;;;;;;;;;;;;;;2079504;28;7049;-65
2021/01/11 03:38:50;;;;;;;;;;;;;;;;;;2078935;28;7145;-65
2021/01/11 03:39:52;;;;;;;;;;;;;;;;;;2079168;28;7013;-64
2021/01/11 03:41:09;;;;;;;;;;;;;;;;;;2078806;28;7093;-64
2021/01/11 03:42:11;;;;;;;;;;;;;;;;;;2079009;28;7009;-65
2021/01/11 03:43:13;;;;;;;;;;;;;;;;;;2078401;28;7451;-63
2021/01/11 03:44:15;;;;;;;;;;;;;;;;;;2070846;28;7093;-63
2021/01/11 03:45:17;;;;;;;;;;;;;;;;;;2071359;28;7081;-66
2021/01/11 03:46:19;;;;;;;;;;;;;;;;;;2071249;28;8029;-64
2021/01/11 03:47:21;;;;;;;;;;;;;;;;;;2071253;28;7046;-65
2021/01/11 03:48:23;;;;;;;;;;;;;;;;;;2071577;28;7088;-65
2021/01/11 03:49:25;;;;;;;;;;;;;;;;;;2070339;28;7025;-65
2021/01/11 03:50:27;;;;;;;;;;;;;;;;;;2071439;28;7092;-65
2021/01/11 03:51:29;;;;;;;;;;;;;;;;;;2071561;28;7009;-65
2021/01/11 03:52:34;;;;;;;;;;;;;;;;;;2071505;28;7117;-64
2021/01/11 03:53:36;;;;;;;;;;;;;;;;;;2072488;28;8035;-65
2021/01/11 03:54:38;;;;;;;;;;;;;;;;;;2071330;28;7072;-64
2021/01/11 03:55:40;;;;;;;;;;;;;;;;;;2071473;28;7034;-66
2021/01/11 03:56:42;;;;;;;;;;;;;;;;;;2070712;28;7009;-64
2021/01/11 03:57:44;;;;;;;;;;;;;;;;;;2071349;28;7009;-64
2021/01/11 03:58:46;;;;;;;;;;;;;;;;;;2070789;28;7045;-66
2021/01/11 03:59:48;;;;;;;;;;;;;;;;;;2070817;28;7010;-65
2021/01/11 04:00:51;;;;;;;;;;;;;;;;;;2070834;28;7096;-65
2021/01/11 04:01:53;;;;;;;;;;;;;;;;;;2071116;28;7005;-65
2021/01/11 04:02:56;;;;;;;;;;;;;;;;;;2071194;28;7009;-64
2021/01/11 04:03:59;;;;;;;;;;;;;;;;;;2071035;28;7036;-65
2021/01/11 04:05:00;;;;;;;;;;;;;;;;;;2071013;28;7089;-64
2021/01/11 04:06:02;;;;;;;;;;;;;;;;;;2070822;28;7010;-65
2021/01/11 04:07:04;;;;;;;;;;;;;;;;;;2071892;28;7092;-65
2021/01/11 04:08:06;;;;;;;;;;;;;;;;;;2070953;28;7093;-66
2021/01/11 04:09:09;;;;;;;;;;;;;;;;;;2071255;28;7101;-63
2021/01/11 04:10:11;;;;;;;;;;;;;;;;;;2069787;28;7029;-64
2021/01/11 04:11:13;;;;;;;;;;;;;;;;;;2071150;28;7005;-65
2021/01/11 04:12:15;;;;;;;;;;;;;;;;;;2070792;28;7559;-65
2021/01/11 04:13:17;;;;;;;;;;;;;;;;;;2071067;28;7054;-64
2021/01/11 04:14:20;;;;;;;;;;;;;;;;;;2070583;28;7421;-65
2021/01/11 04:15:22;;;;;;;;;;;;;;;;;;2070842;28;7046;-64
2021/01/11 04:16:24;;;;;;;;;;;;;;;;;;2070736;28;7092;-65
2021/01/11 04:17:26;;;;;;;;;;;;;;;;;;2070847;28;7092;-64
2021/01/11 04:18:28;;;;;;;;;;;;;;;;;;2070513;28;7139;-65
2021/01/11 04:19:30;;;;;;;;;;;;;;;;;;2070977;28;7049;-66
2021/01/11 04:20:32;;;;;;;;;;;;;;;;;;2070309;28;7029;-65
2021/01/11 04:21:34;;;;;;;;;;;;;;;;;;2077325;28;8039;-65
2021/01/11 04:22:37;;;;;;;;;;;;;;;;;;2070519;28;7045;-66
2021/01/11 04:23:40;;;;;;;;;;;;;;;;;;2071610;28;7076;-63
2021/01/11 04:24:42;;;;;;;;;;;;;;;;;;2071499;28;7105;-65
2021/01/11 04:25:44;;;;;;;;;;;;;;;;;;2070816;28;7009;-64
2021/01/11 04:26:46;;;;;;;;;;;;;;;;;;2070745;28;7130;-65
2021/01/11 04:27:48;;;;;;;;;;;;;;;;;;2070832;28;8066;-65
2021/01/11 04:28:49;;;;;;;;;;;;;;;;;;2070537;28;7403;-64
2021/01/11 04:29:51;;;;;;;;;;;;;;;;;;2071085;28;7013;-64
2021/01/11 04:30:53;;;;;;;;;;;;;;;;;;2070824;28;7096;-65
2021/01/11 04:31:55;;;;;;;;;;;;;;;;;;2071162;28;7005;-65
2021/01/11 04:32:57;;;;;;;;;;;;;;;;;;2070689;28;7009;-64
2021/01/11 04:33:59;;;;;;;;;;;;;;;;;;2070889;28;7312;-65
2021/01/11 04:35:02;;;;;;;;;;;;;;;;;;2071360;28;7009;-65
2021/01/11 04:36:04;;;;;;;;;;;;;;;;;;2070741;28;7025;-63
2021/01/11 04:37:07;;;;;;;;;;;;;;;;;;2077294;28;7120;-64
2021/01/11 04:38:09;;;;;;;;;;;;;;;;;;2078024;28;7018;-63
2021/01/11 04:39:10;;;;;;;;;;;;;;;;;;2069489;28;7014;-64
2021/01/11 04:40:13;;;;;;;;;;;;;;;;;;2069325;28;7105;-65
2021/01/11 04:41:15;;;;;;;;;;;;;;;;;;2070630;28;7005;-65
2021/01/11 04:42:23;;;;;;;;;;;;;;;;;;2072918;28;7017;-64
2021/01/11 04:43:27;;;;;;;;;;;;;;;;;;2078976;28;7013;-64
2021/01/11 04:44:30;;;;;;;;;;;;;;;;;;2078940;28;7001;-64
2021/01/11 04:45:33;;;;;;;;;;;;;;;;;;2078388;28;7013;-65
2021/01/11 04:46:35;;;;;;;;;;;;;;;;;;2078646;28;7108;-65
2021/01/11 04:47:38;;;;;;;;;;;;;;;;;;2078774;28;7014;-63
2021/01/11 04:48:41;;;;;;;;;;;;;;;;;;2078839;28;7057;-65
2021/01/11 04:49:43;;;;;;;;;;;;;;;;;;2078930;28;7061;-65
2021/01/11 04:50:45;;;;;;;;;;;;;;;;;;2078946;28;7009;-65
2021/01/11 04:51:48;;;;;;;;;;;;;;;;;;2078852;28;8054;-63
2021/01/11 04:52:50;;;;;;;;;;;;;;;;;;2079204;28;7058;-65
2021/01/11 04:53:52;;;;;;;;;;;;;;;;;;2079591;28;7347;-65
2021/01/11 04:54:56;;;;;;;;;;;;;;;;;;2078824;28;7005;-65
2021/01/11 04:55:58;;;;;;;;;;;;;;;;;;2070641;28;7080;-65
2021/01/11 04:57:00;;;;;;;;;;;;;;;;;;2070751;28;7013;-65
2021/01/11 04:58:09;;;;;;;;;;;;;;;;;;2077175;28;8062;-63
2021/01/11 04:59:17;;;;;;;;;;;;;;;;;;2078596;28;8027;-66
2021/01/11 05:00:29;;;;;;;;;;;;;;;;;;2078548;28;7105;-64
2021/01/11 05:01:30;;;;;;;;;;;;;;;;;;2078652;28;7109;-63
2021/01/11 05:02:37;;;;;;;;;;;;;;;;;;2078820;28;8062;-65
2021/01/11 05:03:40;;;;;;;;;;;;;;;;;;2070967;28;7109;-64
2021/01/11 05:04:42;;;;;;;;;;;;;;;;;;2069662;28;7017;-65
2021/01/11 05:05:44;;;;;;;;;;;;;;;;;;2069243;28;7311;-63
2021/01/11 05:06:47;;;;;;;;;;;;;;;;;;2071180;28;7010;-65
2021/01/11 05:07:49;;;;;;;;;;;;;;;;;;2070702;28;7104;-63
2021/01/11 05:08:51;;;;;;;;;;;;;;;;;;2078732;28;7136;-64
2021/01/11 05:09:53;;;;;;;;;;;;;;;;;;2078269;28;7009;-63
2021/01/11 05:10:54;;;;;;;;;;;;;;;;;;2078569;28;7328;-65
2021/01/11 05:11:58;;;;;;;;;;;;;;;;;;2078316;28;7101;-64
2021/01/11 05:13:01;;;;;;;;;;;;;;;;;;2078629;28;7353;-63
2021/01/11 05:14:03;;;;;;;;;;;;;;;;;;2078883;28;7021;-65
2021/01/11 05:15:17;;;;;;;;;;;;;;;;;;2078032;28;7179;-63
2021/01/11 05:16:22;;;;;;;;;;;;;;;;;;2077624;28;7017;-65
2021/01/11 05:17:27;;;;;;;;;;;;;;;;;;2078461;28;7013;-65
2021/01/11 05:18:32;;;;;;;;;;;;;;;;;;2078724;28;7391;-65
2021/01/11 05:19:34;;;;;;;;;;;;;;;;;;2078967;28;7136;-64
2021/01/11 05:20:36;;;;;;;;;;;;;;;;;;2078896;28;7017;-65
2021/01/11 05:21:39;;;;;;;;;;;;;;;;;;2072238;28;8099;-63
2021/01/11 05:22:47;;;;;;;;;;;;;;;;;;2070441;28;7046;-63
2021/01/11 05:23:49;;;;;;;;;;;;;;;;;;2076936;28;7890;-65
2021/01/11 05:24:51;;;;;;;;;;;;;;;;;;2077472;28;7050;-64
2021/01/11 05:25:52;;;;;;;;;;;;;;;;;;2075415;28;7109;-66
2021/01/11 05:26:59;;;;;;;;;;;;;;;;;;2078577;28;7042;-64
2021/01/11 05:28:17;;;;;;;;;;;;;;;;;;2078959;28;8116;-65
2021/01/11 05:29:19;;;;;;;;;;;;;;;;;;2078096;28;7088;-64
2021/01/11 05:30:23;;;;;;;;;;;;;;;;;;2078739;28;7009;-64
2021/01/11 05:31:45;;;;;;;;;;;;;;;;;;2078128;28;7379;-65
2021/01/11 05:32:48;;;;;;;;;;;;;;;;;;2078482;28;7089;-64
2021/01/11 05:33:53;;;;;;;;;;;;;;;;;;2078286;28;7092;-64
2021/01/11 05:34:55;;;;;;;;;;;;;;;;;;2078435;28;7084;-64
2021/01/11 05:36:07;;;;;;;;;;;;;;;;;;2078590;28;7009;-63
2021/01/11 05:37:34;;;;;;;;;;;;;;;;;;2078799;28;7022;-64
2021/01/11 05:38:47;;;;;;;;;;;;;;;;;;2078875;28;7046;-65
2021/01/11 05:40:00;;;;;;;;;;;;;;;;;;2078517;28;7092;-63
2021/01/11 05:41:12;;;;;;;;;;;;;;;;;;2078888;28;7009;-64
2021/01/11 05:42:21;;;;;;;;;;;;;;;;;;2078934;28;7304;-64
2021/01/11 05:43:23;;;;;;;;;;;;;;;;;;2078396;28;7069;-63
2021/01/11 05:44:25;;;;;;;;;;;;;;;;;;2078533;28;7340;-65
2021/01/11 05:45:28;;;;;;;;;;;;;;;;;;2079055;28;7988;-66
2021/01/11 05:46:32;;;;;;;;;;;;;;;;;;2078476;28;7013;-63
2021/01/11 05:47:34;;;;;;;;;;;;;;;;;;2076760;28;7005;-65
2021/01/11 05:48:35;;;;;;;;;;;;;;;;;;2070999;28;7045;-64
2021/01/11 05:49:37;;;;;;;;;;;;;;;;;;2070628;28;7093;-64
2021/01/11 05:50:41;;;;;;;;;;;;;;;;;;2070819;28;7009;-65
2021/01/11 05:51:43;;;;;;;;;;;;;;;;;;2070372;28;7010;-65
2021/01/11 05:52:45;;;;;;;;;;;;;;;;;;2070741;28;7092;-62
2021/01/11 05:53:47;;;;;;;;;;;;;;;;;;2070418;28;7005;-64
2021/01/11 05:54:49;;;;;;;;;;;;;;;;;;2070543;28;7065;-64
2021/01/11 05:55:54;;;;;;;;;;;;;;;;;;2071236;28;7362;-63
2021/01/11 05:56:57;;;;;;;;;;;;;;;;;;2070670;28;7014;-64
2021/01/11 05:58:00;;;;;;;;;;;;;;;;;;2070541;28;8034;-63
2021/01/11 05:59:06;;;;;;;;;;;;;;;;;;2070189;28;7402;-63
2021/01/11 06:00:08;;;;;;;;;;;;;;;;;;2070245;28;7137;-64
2021/01/11 06:01:12;;;;;;;;;;;;;;;;;;2070439;28;8047;-64
2021/01/11 06:02:15;;;;;;;;;;;;;;;;;;2070224;28;7121;-65
2021/01/11 06:03:17;;;;;;;;;;;;;;;;;;2070435;28;7018;-65
2021/01/11 06:04:19;;;;;;;;;;;;;;;;;;2070846;28;7096;-63
2021/01/11 06:05:21;;;;;;;;;;;;;;;;;;2070875;28;7305;-64
2021/01/11 06:06:24;;;;;;;;;;;;;;;;;;2070123;28;7021;-65
2021/01/11 06:07:26;;;;;;;;;;;;;;;;;;2070389;28;7084;-65
2021/01/11 06:08:29;;;;;;;;;;;;;;;;;;2070083;28;8099;-63
2021/01/11 06:09:32;;;;;;;;;;;;;;;;;;2070127;28;7088;-63
2021/01/11 06:10:35;;;;;;;;;;;;;;;;;;2070501;28;7025;-65
2021/01/11 06:11:38;;;;;;;;;;;;;;;;;;2070527;28;7025;-63
2021/01/11 06:12:41;;;;;;;;;;;;;;;;;;2070120;28;7093;-64
2021/01/11 06:13:46;;;;;;;;;;;;;;;;;;2070665;28;7046;-65
2021/01/11 06:14:48;;;;;;;;;;;;;;;;;;2069831;28;7058;-66
2021/01/11 06:15:54;;;;;;;;;;;;;;;;;;2069749;28;7088;-66
2021/01/11 06:17:06;;;;;;;;;;;;;;;;;;2070010;28;7014;-64
2021/01/11 06:18:12;;;;;;;;;;;;;;;;;;2069658;28;7096;-64
2021/01/11 06:19:14;;;;;;;;;;;;;;;;;;2069841;28;8236;-65
2021/01/11 06:20:19;;;;;;;;;;;;;;;;;;2070318;28;7017;-65
2021/01/11 06:21:21;;;;;;;;;;;;;;;;;;2073712;28;7017;-64
2021/01/11 06:22:41;;;;;;;;;;;;;;;;;;2078649;28;7092;-65
2021/01/11 06:23:43;;;;;;;;;;;;;;;;;;2078178;28;8047;-63
2021/01/11 06:24:45;;;;;;;;;;;;;;;;;;2078054;28;7013;-65
2021/01/11 06:25:47;;;;;;;;;;;;;;;;;;2078118;28;8039;-64
2021/01/11 06:26:49;;;;;;;;;;;;;;;;;;2078048;28;7013;-65
2021/01/11 06:27:58;;;;;;;;;;;;;;;;;;2079392;28;7013;-63
2021/01/11 06:29:00;;;;;;;;;;;;;;;;;;2078405;28;7005;-64
2021/01/11 06:30:03;;;;;;;;;;;;;;;;;;2078492;28;7369;-65
2021/01/11 06:31:13;;;;;;;;;;;;;;;;;;2078642;28;7092;-63
2021/01/11 06:32:18;;;;;;;;;;;;;;;;;;2078290;28;7089;-65
2021/01/11 06:33:26;;;;;;;;;;;;;;;;;;2078799;28;8058;-66
2021/01/11 06:34:32;;;;;;;;;;;;;;;;;;2071105;28;7013;-65
2021/01/11 06:35:39;;;;;;;;;;;;;;;;;;2070376;28;8027;-63
2021/01/11 06:36:42;;;;;;;;;;;;;;;;;;2070543;28;7324;-63
2021/01/11 06:37:44;;;;;;;;;;;;;;;;;;2070834;28;7096;-63
2021/01/11 06:38:47;;;;;;;;;;;;;;;;;;2070162;28;7085;-64
2021/01/11 06:39:50;;;;;;;;;;;;;;;;;;2070240;28;8006;-65
2021/01/11 06:40:53;;;;;;;;;;;;;;;;;;2070058;28;7009;-63
2021/01/11 06:41:57;;;;;;;;;;;;;;;;;;2070864;28;7113;-65
2021/01/11 06:43:00;;;;;;;;;;;;;;;;;;2069998;28;7377;-66
2021/01/11 06:44:04;;;;;;;;;;;;;;;;;;2071118;28;7009;-64
2021/01/11 06:45:07;;;;;;;;;;;;;;;;;;2071837;28;8056;-65
2021/01/11 06:46:13;;;;;;;;;;;;;;;;;;2071377;28;7050;-66
2021/01/11 06:47:28;;;;;;;;;;;;;;;;;;2070347;28;7025;-64
2021/01/11 06:48:34;;;;;;;;;;;;;;;;;;2070837;28;7097;-64
2021/01/11 06:49:36;;;;;;;;;;;;;;;;;;2071840;28;7092;-64
2021/01/11 06:50:44;;;;;;;;;;;;;;;;;;2071824;28;7010;-64
2021/01/11 06:51:51;;;;;;;;;;;;;;;;;;2071688;28;7025;-64
2021/01/11 06:52:58;;;;;;;;;;;;;;;;;;2071620;28;7097;-66
2021/01/11 06:54:09;;;;;;;;;;;;;;;;;;2071297;28;7105;-64
2021/01/11 06:55:11;;;;;;;;;;;;;;;;;;2071369;28;7046;-65
2021/01/11 06:56:13;;;;;;;;;;;;;;;;;;2071971;28;7029;-63
2021/01/11 06:57:23;;;;;;;;;;;;;;;;;;2070814;28;7050;-64
2021/01/11 06:58:25;;;;;;;;;;;;;;;;;;2071400;28;7050;-64
2021/01/11 06:59:36;;;;;;;;;;;;;;;;;;2071499;28;7108;-65
2021/01/11 07:00:38;;;;;;;;;;;;;;;;;;2071449;28;7014;-64
2021/01/11 07:01:41;;;;;;;;;;;;;;;;;;2071753;28;7113;-65
2021/01/11 07:02:43;;;;;;;;;;;;;;;;;;2070819;28;7124;-65
2021/01/11 07:03:47;;;;;;;;;;;;;;;;;;2070895;28;7096;-63
2021/01/11 07:04:49;;;;;;;;;;;;;;;;;;2071874;28;7045;-63
2021/01/11 07:05:51;;;;;;;;;;;;;;;;;;2071521;28;7092;-64
2021/01/11 07:06:59;;;;;;;;;;;;;;;;;;2071398;28;7038;-66
2021/01/11 07:08:02;;;;;;;;;;;;;;;;;;2071422;28;7009;-63
2021/01/11 07:09:05;;;;;;;;;;;;;;;;;;2071587;28;7054;-64
2021/01/11 07:10:07;;;;;;;;;;;;;;;;;;2072102;28;7053;-64
2021/01/11 07:11:09;;;;;;;;;;;;;;;;;;2071397;28;7041;-66
2021/01/11 07:12:17;;;;;;;;;;;;;;;;;;2071185;28;7025;-66
2021/01/11 07:13:20;;;;;;;;;;;;;;;;;;2071802;28;7141;-64
2021/01/11 07:14:22;;;;;;;;;;;;;;;;;;2071705;28;7037;-65
2021/01/11 07:15:24;;;;;;;;;;;;;;;;;;2071893;28;8052;-66
2021/01/11 07:16:46;;;;;;;;;;;;;;;;;;2070423;28;7545;-65
2021/01/11 07:17:48;;;;;;;;;;;;;;;;;;2071853;28;7096;-64
2021/01/11 07:18:51;;;;;;;;;;;;;;;;;;2071146;28;7375;-64
2021/01/11 07:19:54;;;;;;;;;;;;;;;;;;2071477;28;7013;-65
2021/01/11 07:20:56;;;;;;;;;;;;;;;;;;2071457;28;7138;-65
2021/01/11 07:21:58;;;;;;;;;;;;;;;;;;2079186;28;8035;-65
2021/01/11 07:22:59;;;;;;;;;;;;;;;;;;2079436;28;7038;-64
2021/01/11 07:24:03;;;;;;;;;;;;;;;;;;2079512;28;7084;-65